Time;durP1;ratioP1;P1;durP2;ratioP2;P2;SDS_P1;SDS_P2;PMS_P1;PMS_P2;Temp;Humidity;BMP_temperature;BMP_pressure;BME280_temperature;BME280_humidity;BME280_pressure;Samples;Min_cycle;Max_cycle;Signal;HPM_P1;HPM_P2
2021/09/07 00:01:05;;;;;;;3.75;2.47;;;23.90;81.40;;;;;;4960357;28;20046;-74
2021/09/07 00:03:34;;;;;;;2.53;2.33;;;23.90;80.90;;;;;;4964765;28;20042;-74
2021/09/07 00:06:02;;;;;;;3.88;2.85;;;23.90;80.60;;;;;;4970170;28;20042;-74
2021/09/07 00:08:30;;;;;;;4.00;2.97;;;23.90;81.20;;;;;;4965269;28;20046;-74
2021/09/07 00:10:59;;;;;;;4.20;2.58;;;23.80;81.40;;;;;;4964258;28;20046;-74
2021/09/07 00:13:29;;;;;;;3.58;2.45;;;23.80;81.50;;;;;;4960539;28;20059;-74
2021/09/07 00:15:58;;;;;;;7.13;2.70;;;23.60;81.60;;;;;;4957044;28;20043;-74
2021/09/07 00:18:27;;;;;;;3.38;2.67;;;23.70;81.70;;;;;;4959491;28;20043;-74
2021/09/07 00:20:56;;;;;;;5.03;3.13;;;23.60;81.70;;;;;;4960142;28;20047;-74
2021/09/07 00:23:24;;;;;;;6.70;3.72;;;23.60;81.80;;;;;;4957995;28;20141;-74
2021/09/07 00:25:53;;;;;;;3.53;2.88;;;23.50;82.10;;;;;;4959546;28;20174;-74
2021/09/07 00:28:21;;;;;;;4.20;2.75;;;23.50;82.00;;;;;;4957350;28;20043;-74
2021/09/07 00:30:51;;;;;;;4.90;2.67;;;23.40;82.10;;;;;;4955645;28;20058;-74
2021/09/07 00:33:19;;;;;;;3.08;2.60;;;23.40;81.90;;;;;;4954475;28;20054;-74
2021/09/07 00:35:47;;;;;;;4.15;2.75;;;23.50;82.30;;;;;;4956196;28;20062;-74
2021/09/07 00:38:16;;;;;;;4.43;3.25;;;23.30;82.60;;;;;;4956779;28;20036;-74
2021/09/07 00:40:44;;;;;;;3.20;2.45;;;23.00;83.10;;;;;;4951325;28;20043;-74
2021/09/07 00:43:13;;;;;;;3.60;2.80;;;23.00;82.80;;;;;;4961500;28;20039;-74
2021/09/07 00:45:41;;;;;;;2.78;2.47;;;23.10;82.60;;;;;;4957498;28;20114;-74
2021/09/07 00:48:11;;;;;;;4.70;2.90;;;23.00;82.50;;;;;;4959983;28;20043;-74
2021/09/07 00:50:39;;;;;;;4.88;2.55;;;23.00;82.60;;;;;;4956338;28;20046;-74
2021/09/07 00:53:08;;;;;;;4.57;2.95;;;23.00;82.60;;;;;;4963933;28;20101;-73
2021/09/07 00:55:37;;;;;;;3.55;2.50;;;23.00;82.70;;;;;;4975903;28;20405;-74
2021/09/07 00:58:07;;;;;;;4.35;2.60;;;22.90;82.80;;;;;;4963172;28;20054;-73
2021/09/07 01:00:35;;;;;;;3.30;2.97;;;22.80;83.30;;;;;;4959269;28;20050;-74
2021/09/07 01:03:05;;;;;;;4.15;2.60;;;22.80;83.10;;;;;;4967795;28;20128;-74
2021/09/07 01:05:35;;;;;;;3.05;2.65;;;22.70;83.50;;;;;;4961186;28;20059;-74
2021/09/07 01:08:04;;;;;;;4.75;2.92;;;22.70;83.30;;;;;;4965094;28;20485;-74
2021/09/07 01:10:36;;;;;;;3.42;2.58;;;22.70;83.50;;;;;;4963020;28;20043;-74
2021/09/07 01:13:04;;;;;;;3.92;2.70;;;22.60;83.70;;;;;;4965172;28;20501;-74
2021/09/07 01:15:33;;;;;;;3.53;2.97;;;22.60;83.80;;;;;;4965367;28;20055;-74
2021/09/07 01:18:02;;;;;;;2.90;2.60;;;22.60;83.90;;;;;;4961383;28;20596;-74
2021/09/07 01:20:32;;;;;;;3.65;2.38;;;22.70;84.00;;;;;;4964710;28;20034;-74
2021/09/07 01:23:02;;;;;;;4.43;2.88;;;22.60;84.30;;;;;;4966923;28;20064;-74
2021/09/07 01:25:32;;;;;;;3.85;2.20;;;22.40;84.50;;;;;;4966252;28;20071;-74
2021/09/07 01:28:01;;;;;;;3.15;2.63;;;22.40;84.50;;;;;;4962716;28;20076;-74
2021/09/07 01:30:30;;;;;;;3.63;2.85;;;22.40;84.50;;;;;;4963109;28;20039;-74
2021/09/07 01:32:59;;;;;;;3.03;2.72;;;22.30;84.80;;;;;;4966473;28;20054;-74
2021/09/07 01:35:27;;;;;;;3.22;2.20;;;22.20;84.90;;;;;;4965077;28;20047;-74
2021/09/07 01:37:56;;;;;;;3.53;2.90;;;22.20;85.20;;;;;;4961668;28;20091;-74
2021/09/07 01:40:24;;;;;;;3.38;2.60;;;22.00;85.30;;;;;;4959552;28;20588;-74
2021/09/07 01:42:53;;;;;;;4.45;3.20;;;22.10;85.60;;;;;;4958065;28;20054;-74
2021/09/07 01:45:22;;;;;;;3.25;2.95;;;22.30;85.40;;;;;;4963027;28;20049;-74
2021/09/07 01:47:50;;;;;;;3.25;2.35;;;22.30;85.40;;;;;;4964828;28;20058;-74
2021/09/07 01:50:19;;;;;;;3.10;2.67;;;22.20;85.40;;;;;;4965849;28;20054;-74
2021/09/07 01:52:47;;;;;;;2.70;2.38;;;22.10;85.80;;;;;;4962953;28;20051;-74
2021/09/07 01:55:16;;;;;;;4.05;2.92;;;22.00;86.00;;;;;;4979013;28;20034;-74
2021/09/07 01:57:44;;;;;;;3.83;2.70;;;22.00;86.10;;;;;;4964097;28;20047;-74
2021/09/07 02:00:16;;;;;;;2.90;2.60;;;22.00;86.10;;;;;;4960656;28;20038;-74
2021/09/07 02:02:45;;;;;;;3.10;2.38;;;21.90;86.30;;;;;;4979406;28;20050;-74
2021/09/07 02:05:14;;;;;;;3.83;2.70;;;21.90;86.50;;;;;;4963783;28;20041;-74
2021/09/07 02:07:44;;;;;;;3.60;2.58;;;21.70;86.80;;;;;;4950159;28;20429;-74
2021/09/07 02:10:12;;;;;;;4.70;2.80;;;21.50;87.30;;;;;;4960644;28;20521;-74
2021/09/07 02:12:42;;;;;;;4.05;2.45;;;21.60;87.00;;;;;;4963055;28;20053;-74
2021/09/07 02:15:11;;;;;;;3.20;2.55;;;21.60;87.20;;;;;;4956521;28;20129;-74
2021/09/07 02:17:43;;;;;;;3.10;2.72;;;21.60;87.10;;;;;;4964649;28;20106;-74
2021/09/07 02:20:12;;;;;;;3.15;2.35;;;21.50;87.30;;;;;;4962243;28;20417;-74
2021/09/07 02:22:41;;;;;;;4.70;2.38;;;21.40;87.90;;;;;;4964290;28;20058;-74
2021/09/07 02:25:15;;;;;;;4.13;2.90;;;21.30;88.50;;;;;;4957542;28;20046;-74
2021/09/07 02:27:44;;;;;;;3.22;2.40;;;21.10;89.50;;;;;;4965631;28;20370;-74
2021/09/07 02:30:19;;;;;;;5.97;2.95;;;21.00;90.10;;;;;;4962036;28;20132;-74
2021/09/07 02:32:56;;;;;;;3.42;2.70;;;20.90;90.60;;;;;;4970429;28;20066;-74
2021/09/07 02:35:27;;;;;;;4.65;2.90;;;20.80;90.90;;;;;;4966024;28;20051;-74
2021/09/07 02:37:55;;;;;;;3.30;2.95;;;20.70;91.50;;;;;;4939847;28;20141;-74
2021/09/07 02:40:24;;;;;;;3.38;2.58;;;20.70;91.40;;;;;;4960466;28;20031;-74
2021/09/07 02:42:53;;;;;;;2.85;2.55;;;20.60;92.10;;;;;;4960477;28;20441;-74
2021/09/07 02:45:21;;;;;;;4.95;3.10;;;20.50;92.20;;;;;;4959591;28;20113;-74
2021/09/07 02:47:51;;;;;;;3.63;2.95;;;20.50;92.60;;;;;;4961762;28;20549;-74
2021/09/07 02:50:22;;;;;;;4.38;2.85;;;20.60;91.70;;;;;;4955651;28;20062;-74
2021/09/07 02:52:51;;;;;;;3.42;2.67;;;20.60;91.60;;;;;;4962610;28;20043;-74
2021/09/07 02:55:20;;;;;;;5.95;2.65;;;20.50;91.80;;;;;;4965310;28;20039;-74
2021/09/07 02:57:49;;;;;;;2.92;2.53;;;20.40;91.90;;;;;;4957773;28;20046;-74
2021/09/07 03:00:17;;;;;;;5.35;2.70;;;20.50;91.90;;;;;;4962814;28;20051;-74
2021/09/07 03:02:46;;;;;;;4.20;2.60;;;20.60;91.50;;;;;;4968864;28;20121;-74
2021/09/07 03:05:14;;;;;;;3.78;2.83;;;20.60;91.20;;;;;;4945987;28;20075;-74
2021/09/07 03:07:44;;;;;;;2.60;2.38;;;20.50;91.30;;;;;;4962724;28;20050;-74
2021/09/07 03:10:13;;;;;;;2.88;2.67;;;20.50;91.30;;;;;;4993499;28;20493;-74
2021/09/07 03:12:42;;;;;;;5.63;2.92;;;20.40;91.50;;;;;;4965386;28;20070;-74
2021/09/07 03:15:11;;;;;;;4.70;2.88;;;20.40;91.50;;;;;;4986412;28;20524;-74
2021/09/07 03:17:40;;;;;;;2.85;2.63;;;20.20;91.60;;;;;;4969168;28;20120;-74
2021/09/07 03:20:10;;;;;;;3.88;3.10;;;20.30;91.60;;;;;;4958190;28;20058;-74
2021/09/07 03:22:39;;;;;;;3.83;3.17;;;20.20;91.80;;;;;;4958827;28;20393;-74
2021/09/07 03:25:10;;;;;;;5.25;3.03;;;20.20;91.70;;;;;;4962240;28;20142;-74
2021/09/07 03:27:39;;;;;;;5.55;3.10;;;20.20;92.00;;;;;;4957556;28;20043;-74
2021/09/07 03:30:08;;;;;;;2.92;2.63;;;20.10;92.50;;;;;;4967768;28;20099;-74
2021/09/07 03:32:37;;;;;;;4.90;2.95;;;20.00;93.20;;;;;;4959024;28;20058;-74
2021/09/07 03:35:07;;;;;;;5.18;2.92;;;20.20;92.80;;;;;;4964107;28;20061;-74
2021/09/07 03:37:37;;;;;;;5.20;3.15;;;20.10;93.00;;;;;;4963317;28;20393;-74
2021/09/07 03:40:07;;;;;;;4.28;3.10;;;20.20;92.70;;;;;;4960260;28;20294;-74
2021/09/07 03:42:38;;;;;;;5.25;3.50;;;20.00;93.10;;;;;;4962067;28;20700;-74
2021/09/07 03:45:11;;;;;;;5.68;3.42;;;20.00;93.60;;;;;;4953884;28;20474;-74
2021/09/07 03:47:41;;;;;;;4.50;3.13;;;19.90;93.90;;;;;;4958009;28;20059;-74
2021/09/07 03:50:11;;;;;;;3.95;2.83;;;19.80;94.20;;;;;;4963094;28;20534;-74
2021/09/07 03:52:41;;;;;;;3.67;3.05;;;19.90;94.30;;;;;;4962578;28;20098;-74
2021/09/07 03:55:12;;;;;;;5.68;3.80;;;19.90;94.30;;;;;;4960477;28;20139;-74
2021/09/07 03:57:42;;;;;;;6.00;2.90;;;20.00;93.90;;;;;;4959769;28;20101;-74
2021/09/07 04:00:13;;;;;;;5.15;3.13;;;20.00;93.50;;;;;;4972347;28;20437;-74
2021/09/07 04:02:41;;;;;;;4.25;2.80;;;20.00;93.50;;;;;;4964037;28;20039;-74
2021/09/07 04:05:11;;;;;;;5.32;3.17;;;20.10;93.30;;;;;;4955109;28;20054;-74
2021/09/07 04:07:39;;;;;;;3.60;3.00;;;19.90;93.40;;;;;;4962204;28;20049;-74
2021/09/07 04:10:09;;;;;;;4.60;3.08;;;19.80;93.80;;;;;;4963830;28;20057;-74
2021/09/07 04:12:38;;;;;;;4.05;3.03;;;19.60;94.20;;;;;;4965287;28;20127;-74
2021/09/07 04:15:09;;;;;;;4.32;2.95;;;19.70;94.40;;;;;;4959087;28;20042;-74
2021/09/07 04:17:38;;;;;;;3.80;3.10;;;19.80;93.90;;;;;;4953108;28;20493;-74
2021/09/07 04:20:09;;;;;;;3.40;2.80;;;19.80;93.80;;;;;;4961685;28;20050;-74
2021/09/07 04:22:38;;;;;;;6.15;3.20;;;19.60;94.30;;;;;;4952807;28;20046;-74
2021/09/07 04:25:08;;;;;;;5.68;2.92;;;19.60;94.50;;;;;;4960954;28;20050;-74
2021/09/07 04:27:38;;;;;;;7.03;2.80;;;19.50;94.90;;;;;;4963235;28;20051;-74
2021/09/07 04:30:09;;;;;;;5.25;3.13;;;19.60;94.90;;;;;;4959497;28;20390;-74
2021/09/07 04:32:38;;;;;;;4.65;2.97;;;19.60;94.70;;;;;;4963089;28;20043;-74
2021/09/07 04:35:12;;;;;;;5.22;3.25;;;19.60;94.60;;;;;;4961358;28;20035;-74
2021/09/07 04:37:40;;;;;;;5.00;3.13;;;19.80;94.30;;;;;;4957705;28;20047;-74
2021/09/07 04:40:09;;;;;;;4.32;3.08;;;19.70;94.30;;;;;;4965604;28;20054;-74
2021/09/07 04:42:38;;;;;;;5.57;3.03;;;19.60;94.60;;;;;;4957738;28;20054;-74
2021/09/07 04:45:14;;;;;;;3.15;2.80;;;19.60;94.70;;;;;;4964526;28;20046;-74
2021/09/07 04:47:44;;;;;;;5.32;3.08;;;19.60;94.90;;;;;;4964356;28;20058;-74
2021/09/07 04:50:19;;;;;;;4.25;2.88;;;19.50;95.40;;;;;;4960492;28;20524;-74
2021/09/07 04:52:47;;;;;;;4.43;2.85;;;19.30;96.50;;;;;;4939261;28;20059;-74
2021/09/07 04:55:18;;;;;;;4.55;3.03;;;19.40;96.50;;;;;;4963081;28;20059;-74
2021/09/07 04:57:46;;;;;;;3.83;3.20;;;19.40;96.70;;;;;;4962956;28;20073;-74
2021/09/07 05:00:18;;;;;;;7.18;3.30;;;19.50;96.70;;;;;;4945334;28;20417;-74
2021/09/07 05:02:46;;;;;;;7.90;3.60;;;19.50;96.70;;;;;;4958620;28;20052;-74
2021/09/07 05:05:15;;;;;;;6.32;3.75;;;19.50;96.70;;;;;;4958826;28;20047;-74
2021/09/07 05:07:44;;;;;;;4.95;3.17;;;19.60;96.50;;;;;;4958278;28;20412;-74
2021/09/07 05:10:13;;;;;;;6.05;3.63;;;19.60;96.40;;;;;;4956589;28;20185;-74
2021/09/07 05:12:41;;;;;;;7.90;4.07;;;19.60;96.30;;;;;;4966731;28;20556;-74
2021/09/07 05:15:10;;;;;;;4.07;3.47;;;19.60;96.10;;;;;;4962079;28;20057;-74
2021/09/07 05:17:40;;;;;;;7.32;3.65;;;19.60;95.90;;;;;;4958050;28;20050;-74
2021/09/07 05:20:10;;;;;;;5.13;3.40;;;19.60;96.20;;;;;;4953476;28;20137;-74
2021/09/07 05:22:39;;;;;;;7.20;3.80;;;19.70;95.90;;;;;;4957664;28;20047;-74
2021/09/07 05:25:08;;;;;;;4.28;3.40;;;19.70;95.60;;;;;;4957898;28;20063;-74
2021/09/07 05:27:38;;;;;;;6.88;3.15;;;19.70;95.80;;;;;;4960638;28;20057;-74
2021/09/07 05:30:10;;;;;;;5.60;2.92;;;19.80;95.60;;;;;;4958816;28;20517;-74
2021/09/07 05:32:40;;;;;;;7.13;3.67;;;19.80;95.50;;;;;;4944631;28;20425;-74
2021/09/07 05:35:09;;;;;;;7.45;3.38;;;19.70;95.90;;;;;;4961691;28;20175;-74
2021/09/07 05:37:40;;;;;;;6.55;3.13;;;19.60;95.90;;;;;;4963703;28;20031;-74
2021/09/07 05:40:10;;;;;;;3.78;3.20;;;19.70;96.00;;;;;;4958180;28;20845;-74
2021/09/07 05:42:41;;;;;;;5.28;3.45;;;19.70;95.70;;;;;;4958646;28;20131;-74
2021/09/07 05:45:11;;;;;;;7.72;3.33;;;19.60;96.00;;;;;;4963349;28;20038;-75
2021/09/07 05:47:43;;;;;;;8.35;3.80;;;19.70;95.90;;;;;;4946441;28;20145;-75
2021/09/07 05:50:16;;;;;;;5.18;3.63;;;19.80;95.80;;;;;;4948935;28;20058;-75
2021/09/07 05:52:45;;;;;;;8.85;3.67;;;20.00;95.40;;;;;;5000872;28;20050;-75
2021/09/07 05:55:16;;;;;;;4.78;3.58;;;20.10;95.10;;;;;;4942359;28;20057;-75
2021/09/07 05:57:45;;;;;;;5.03;3.58;;;20.20;94.90;;;;;;4971914;28;20039;-75
2021/09/07 06:00:15;;;;;;;6.35;3.42;;;20.20;94.90;;;;;;4962523;28;20054;-75
2021/09/07 06:02:45;;;;;;;7.63;3.55;;;20.20;94.90;;;;;;4967497;28;20655;-75
2021/09/07 06:05:14;;;;;;;5.93;3.30;;;20.20;94.80;;;;;;4961632;28;20041;-75
2021/09/07 06:07:43;;;;;;;6.25;3.38;;;20.10;95.40;;;;;;4967299;28;20509;-75
2021/09/07 06:10:12;;;;;;;3.80;3.38;;;20.20;95.30;;;;;;4953773;28;20053;-75
2021/09/07 06:12:40;;;;;;;4.40;3.72;;;20.40;94.90;;;;;;4963380;28;20047;-75
2021/09/07 06:15:09;;;;;;;5.25;3.47;;;20.50;94.50;;;;;;4961212;28;20047;-75
2021/09/07 06:17:38;;;;;;;4.15;3.40;;;20.50;94.50;;;;;;4965829;28;20038;-75
2021/09/07 06:20:10;;;;;;;5.43;3.22;;;20.50;94.60;;;;;;4963875;28;20035;-75
2021/09/07 06:22:38;;;;;;;7.10;4.43;;;20.50;94.70;;;;;;5003980;28;20138;-75
2021/09/07 06:25:08;;;;;;;3.75;2.92;;;20.70;94.40;;;;;;4970745;28;20062;-75
2021/09/07 06:27:36;;;;;;;5.45;3.28;;;20.70;94.30;;;;;;4965705;28;20102;-75
2021/09/07 06:30:06;;;;;;;5.43;3.50;;;20.70;94.30;;;;;;4966002;28;20051;-75
2021/09/07 06:32:36;;;;;;;4.78;3.03;;;20.80;94.40;;;;;;4965373;28;20596;-75
2021/09/07 06:35:05;;;;;;;4.80;3.30;;;20.80;94.20;;;;;;4960795;28;20055;-75
2021/09/07 06:37:35;;;;;;;4.70;2.53;;;20.80;94.10;;;;;;4966966;28;20050;-75
2021/09/07 06:40:06;;;;;;;8.25;3.65;;;20.90;94.10;;;;;;4963803;28;20073;-75
2021/09/07 06:42:35;;;;;;;8.30;3.90;;;20.80;94.10;;;;;;4974095;28;20043;-75
2021/09/07 06:45:04;;;;;;;4.40;3.20;;;20.80;94.20;;;;;;4965393;28;20073;-75
2021/09/07 06:47:33;;;;;;;5.10;3.03;;;20.80;94.20;;;;;;4962552;28;20050;-75
2021/09/07 06:50:02;;;;;;;4.90;3.10;;;20.80;94.10;;;;;;4956935;28;20051;-75
2021/09/07 06:52:31;;;;;;;4.25;3.10;;;20.90;94.00;;;;;;4958070;28;20043;-75
2021/09/07 06:55:01;;;;;;;7.97;3.50;;;21.00;94.00;;;;;;4959338;28;20055;-75
2021/09/07 06:57:30;;;;;;;4.25;3.17;;;21.00;93.60;;;;;;4970091;28;20060;-75
2021/09/07 06:59:59;;;;;;;6.03;3.58;;;21.10;93.40;;;;;;4964664;28;20042;-75
2021/09/07 07:02:28;;;;;;;5.15;3.95;;;21.20;93.30;;;;;;4962135;28;21785;-75
2021/09/07 07:04:56;;;;;;;6.65;3.20;;;20.90;94.00;;;;;;4964911;28;20042;-75
2021/09/07 07:07:25;;;;;;;7.78;3.90;;;21.00;94.10;;;;;;4964328;28;20502;-75
2021/09/07 07:09:54;;;;;;;6.32;3.00;;;21.10;93.90;;;;;;4949657;28;20043;-75
2021/09/07 07:12:24;;;;;;;5.40;3.55;;;21.30;93.60;;;;;;4963165;28;20081;-75
2021/09/07 07:14:53;;;;;;;6.75;3.50;;;21.30;93.20;;;;;;4964012;28;20133;-75
2021/09/07 07:17:22;;;;;;;4.68;3.00;;;21.30;93.40;;;;;;4963241;28;20369;-76
2021/09/07 07:19:51;;;;;;;4.47;3.33;;;21.50;93.20;;;;;;4966120;28;20134;-75
2021/09/07 07:22:21;;;;;;;7.03;3.67;;;21.60;93.00;;;;;;4959892;28;20563;-76
2021/09/07 07:24:49;;;;;;;7.15;3.95;;;21.70;92.20;;;;;;4968998;28;20101;-75
2021/09/07 07:27:18;;;;;;;6.00;3.58;;;21.60;92.40;;;;;;4956758;28;20043;-75
2021/09/07 07:29:48;;;;;;;7.38;4.20;;;21.80;92.10;;;;;;4943666;28;20051;-75
2021/09/07 07:32:17;;;;;;;6.88;3.88;;;21.80;92.00;;;;;;4963345;28;20070;-75
2021/09/07 07:34:46;;;;;;;5.63;5.05;;;21.90;91.60;;;;;;4964652;28;20042;-75
2021/09/07 07:37:14;;;;;;;8.93;5.15;;;22.00;91.50;;;;;;4966980;28;20039;-75
2021/09/07 07:39:43;;;;;;;11.88;6.13;;;22.00;91.70;;;;;;4962407;28;20053;-75
2021/09/07 07:42:12;;;;;;;11.70;6.45;;;22.10;91.50;;;;;;4961951;28;20072;-75
2021/09/07 07:44:41;;;;;;;12.10;6.55;;;22.10;91.00;;;;;;4967204;28;20055;-75
2021/09/07 07:47:11;;;;;;;11.23;5.63;;;22.10;91.10;;;;;;4960789;28;20086;-75
2021/09/07 07:49:40;;;;;;;11.75;6.30;;;22.20;91.00;;;;;;4947353;28;20054;-76
2021/09/07 07:52:08;;;;;;;12.32;7.05;;;22.40;90.70;;;;;;4961658;28;20122;-75
2021/09/07 07:54:38;;;;;;;14.30;6.30;;;22.50;90.20;;;;;;4962581;28;20057;-75
2021/09/07 07:57:11;;;;;;;12.38;6.68;;;22.50;90.10;;;;;;4965914;28;20452;-75
2021/09/07 07:59:40;;;;;;;10.52;5.90;;;22.60;90.20;;;;;;4962191;28;20070;-75
2021/09/07 08:02:10;;;;;;;12.85;6.35;;;22.80;90.00;;;;;;4947640;28;20050;-75
2021/09/07 08:04:53;;;;;;;8.73;5.53;;;22.90;88.90;;;;;;4961605;28;20054;-75
2021/09/07 08:07:22;;;;;;;7.28;4.68;;;23.00;88.70;;;;;;4958695;28;20552;-75
2021/09/07 08:09:51;;;;;;;7.95;5.45;;;23.00;88.20;;;;;;4963439;28;20090;-75
2021/09/07 08:12:20;;;;;;;10.82;6.47;;;23.20;87.90;;;;;;4963623;28;20035;-75
2021/09/07 08:14:48;;;;;;;10.32;6.30;;;23.20;87.60;;;;;;4957688;28;20043;-75
2021/09/07 08:17:18;;;;;;;8.27;5.68;;;23.30;87.30;;;;;;4963529;28;20600;-75
2021/09/07 08:19:47;;;;;;;7.32;5.65;;;23.50;87.00;;;;;;4960626;28;20039;-76
2021/09/07 08:22:17;;;;;;;7.20;5.45;;;23.60;86.10;;;;;;4961954;28;20057;-76
2021/09/07 08:24:48;;;;;;;8.02;5.50;;;23.70;85.00;;;;;;4969506;28;20051;-76
2021/09/07 08:27:17;;;;;;;7.95;5.20;;;23.70;85.20;;;;;;4963114;28;20138;-75
2021/09/07 08:29:46;;;;;;;7.32;5.35;;;23.80;84.90;;;;;;4960790;28;20596;-76
2021/09/07 08:32:14;;;;;;;8.30;4.88;;;23.90;84.30;;;;;;4965471;28;20038;-76
2021/09/07 08:34:44;;;;;;;8.32;4.68;;;24.00;84.00;;;;;;4965904;28;20105;-75
2021/09/07 08:37:13;;;;;;;7.63;5.15;;;24.10;84.10;;;;;;4964188;28;20043;-76
2021/09/07 08:39:42;;;;;;;7.68;4.90;;;24.30;83.70;;;;;;4958896;28;20078;-76
2021/09/07 08:42:12;;;;;;;9.27;5.28;;;24.30;83.30;;;;;;4959587;28;20093;-76
2021/09/07 08:44:46;;;;;;;10.60;4.85;;;24.40;83.10;;;;;;4961186;28;20054;-76
2021/09/07 08:47:16;;;;;;;8.25;4.93;;;24.50;82.70;;;;;;4942554;28;20074;-76
2021/09/07 08:49:50;;;;;;;11.15;5.50;;;24.60;82.30;;;;;;4961330;28;20055;-76
2021/09/07 08:52:19;;;;;;;7.25;5.07;;;24.70;82.00;;;;;;4963191;28;20921;-76
2021/09/07 08:54:48;;;;;;;6.57;5.13;;;24.80;82.10;;;;;;4961548;28;20050;-76
2021/09/07 08:57:17;;;;;;;9.07;5.15;;;24.90;81.90;;;;;;4959350;28;20139;-75
2021/09/07 08:59:56;;;;;;;9.65;4.78;;;24.90;81.60;;;;;;4946772;28;20051;-75
2021/09/07 09:02:26;;;;;;;13.75;4.82;;;24.90;81.30;;;;;;4958054;28;20062;-75
2021/09/07 09:04:58;;;;;;;11.52;5.57;;;25.00;81.20;;;;;;4962650;28;20310;-75
2021/09/07 09:07:28;;;;;;;7.40;4.15;;;25.10;80.70;;;;;;4960032;28;20063;-76
2021/09/07 09:09:59;;;;;;;6.82;4.22;;;25.20;80.50;;;;;;4962692;28;20071;-76
2021/09/07 09:12:32;;;;;;;7.47;4.70;;;25.30;79.80;;;;;;4963511;28;20031;-76
2021/09/07 09:15:01;;;;;;;7.45;5.07;;;25.40;79.60;;;;;;4961921;28;20043;-76
2021/09/07 09:17:31;;;;;;;6.57;4.28;;;25.40;79.40;;;;;;4957740;28;20171;-76
2021/09/07 09:20:04;;;;;;;8.27;4.45;;;25.60;78.90;;;;;;4962242;28;20046;-76
2021/09/07 09:22:44;;;;;;;9.30;4.97;;;25.70;78.70;;;;;;4956937;28;20039;-76
2021/09/07 09:25:38;;;;;;;11.43;5.22;;;25.80;77.90;;;;;;4963661;28;20078;-74
2021/09/07 09:28:16;;;;;;;10.75;4.40;;;25.90;78.20;;;;;;4961839;28;20057;-75
2021/09/07 09:30:46;;;;;;;7.22;4.65;;;26.00;78.80;;;;;;4967880;28;20529;-74
2021/09/07 09:33:16;;;;;;;7.75;4.60;;;26.10;77.20;;;;;;4967408;28;20109;-74
2021/09/07 09:35:49;;;;;;;5.82;4.10;;;26.20;77.20;;;;;;4998849;28;20057;-74
2021/09/07 09:38:19;;;;;;;8.80;4.47;;;26.40;77.80;;;;;;4965036;28;20053;-75
2021/09/07 09:41:00;;;;;;;9.32;4.05;;;26.50;77.10;;;;;;4960177;28;20501;-74
2021/09/07 09:43:43;;;;;;;5.57;3.78;;;26.70;77.00;;;;;;4976369;28;20054;-74
2021/09/07 09:46:20;;;;;;;4.20;3.53;;;26.70;76.20;;;;;;4956425;28;20576;-74
2021/09/07 09:48:49;;;;;;;5.72;3.78;;;26.70;75.90;;;;;;4959515;28;20047;-75
2021/09/07 09:51:21;;;;;;;6.15;4.38;;;26.90;76.20;;;;;;4960257;28;20509;-74
2021/09/07 09:53:50;;;;;;;7.45;4.10;;;27.20;75.70;;;;;;4964028;28;20461;-74
2021/09/07 09:56:19;;;;;;;7.15;3.70;;;27.20;76.10;;;;;;4958655;28;20480;-75
2021/09/07 09:58:48;;;;;;;5.72;3.85;;;27.10;75.70;;;;;;4961542;28;20221;-74
2021/09/07 10:01:18;;;;;;;4.35;3.83;;;27.20;75.90;;;;;;4963887;28;20049;-75
2021/09/07 10:03:49;;;;;;;3.60;3.28;;;27.20;75.80;;;;;;4967179;28;20086;-75
2021/09/07 10:06:20;;;;;;;6.80;3.22;;;27.30;76.10;;;;;;4961934;28;20055;-75
2021/09/07 10:08:49;;;;;;;4.22;2.97;;;27.30;75.30;;;;;;4966679;28;20043;-74
2021/09/07 10:11:22;;;;;;;4.20;3.72;;;27.50;75.40;;;;;;4963500;28;20473;-75
2021/09/07 10:13:55;;;;;;;8.80;3.70;;;27.50;74.80;;;;;;4980902;28;20042;-74
2021/09/07 10:16:33;;;;;;;3.95;3.30;;;27.60;75.40;;;;;;4964975;28;20575;-74
2021/09/07 10:19:26;;;;;;;5.55;3.38;;;27.70;75.00;;;;;;4965530;28;20517;-74
2021/09/07 10:24:53;;;;;;;5.30;3.55;;;28.10;74.20;;;;;;4959440;28;20047;-74
2021/09/07 10:27:42;;;;;;;3.50;3.20;;;28.30;74.00;;;;;;4971121;28;20051;-74
2021/09/07 10:30:31;;;;;;;4.13;3.65;;;28.50;74.20;;;;;;4973589;28;20043;-74
2021/09/07 10:33:29;;;;;;;4.32;3.45;;;28.40;72.90;;;;;;4965788;28;20046;-74
2021/09/07 10:36:06;;;;;;;3.88;3.47;;;28.40;72.90;;;;;;4956550;28;20389;-75
2021/09/07 10:38:42;;;;;;;4.53;3.40;;;28.60;73.50;;;;;;4959994;28;20062;-74
2021/09/07 10:41:31;;;;;;;9.65;3.67;;;28.60;72.70;;;;;;4962316;28;20250;-75
2021/09/07 10:44:01;;;;;;;4.07;3.67;;;28.70;73.40;;;;;;4959823;28;20097;-75
2021/09/07 10:46:47;;;;;;;4.40;3.90;;;28.60;72.70;;;;;;4964376;28;20039;-74
2021/09/07 10:49:18;;;;;;;4.00;3.55;;;28.50;72.60;;;;;;4962714;28;20117;-74
2021/09/07 10:52:09;;;;;;;6.22;3.85;;;28.60;72.80;;;;;;4923456;29;20063;-74
2021/09/07 10:54:46;;;;;;;4.68;3.83;;;28.90;73.50;;;;;;4915755;29;20055;-74
2021/09/07 10:57:49;;;;;;;3.67;3.33;;;29.30;72.90;;;;;;4923548;29;20036;-75
2021/09/07 11:00:36;;;;;;;4.18;3.60;;;29.50;72.60;;;;;;4921181;29;20095;-75
2021/09/07 11:03:10;;;;;;;4.55;3.83;;;29.60;72.90;;;;;;4906835;29;20400;-75
2021/09/07 11:05:44;;;;;;;6.78;3.83;;;29.50;72.40;;;;;;4922032;29;20044;-74
2021/09/07 11:08:16;;;;;;;5.35;3.80;;;29.40;71.90;;;;;;4922484;29;20047;-75
2021/09/07 11:10:48;;;;;;;4.93;3.30;;;29.50;72.40;;;;;;4927755;29;20055;-74
2021/09/07 11:13:23;;;;;;;5.68;3.78;;;30.00;72.10;;;;;;4923832;29;20047;-74
2021/09/07 11:15:53;;;;;;;5.88;3.95;;;30.30;72.00;;;;;;4924379;29;20107;-74
2021/09/07 11:18:27;;;;;;;5.38;4.13;;;30.50;71.30;;;;;;4923630;29;20074;-75
2021/09/07 11:20:58;;;;;;;4.78;3.55;;;30.10;70.60;;;;;;4939595;29;20102;-75
2021/09/07 11:23:28;;;;;;;4.95;3.92;;;30.00;70.70;;;;;;4919036;28;21062;-74
2021/09/07 11:26:03;;;;;;;4.38;3.72;;;30.00;71.80;;;;;;4923942;29;20051;-75
2021/09/07 11:28:33;;;;;;;7.03;3.33;;;30.00;71.20;;;;;;4917412;29;20051;-75
2021/09/07 11:31:03;;;;;;;4.60;3.72;;;30.00;70.50;;;;;;4923533;29;20058;-75
2021/09/07 11:33:34;;;;;;;3.80;3.47;;;30.30;70.40;;;;;;4923722;29;20454;-75
2021/09/07 11:36:04;;;;;;;3.70;3.40;;;30.30;69.60;;;;;;4923801;29;20052;-75
2021/09/07 11:38:35;;;;;;;4.32;3.88;;;30.40;69.80;;;;;;4908512;29;20093;-75
2021/09/07 11:41:09;;;;;;;4.00;3.60;;;30.30;69.00;;;;;;4922638;29;20126;-75
2021/09/07 11:43:39;;;;;;;4.22;3.65;;;30.00;68.70;;;;;;4924497;29;20209;-74
2021/09/07 11:46:10;;;;;;;3.83;3.20;;;30.00;68.70;;;;;;4926149;29;20044;-75
2021/09/07 11:48:44;;;;;;;5.72;2.90;;;29.70;68.90;;;;;;4928508;29;20048;-75
2021/09/07 11:51:24;;;;;;;4.75;3.45;;;29.80;69.70;;;;;;4957104;28;20067;-75
2021/09/07 11:53:54;;;;;;;5.05;3.47;;;30.00;69.80;;;;;;4965038;28;20623;-75
2021/09/07 11:56:26;;;;;;;3.88;3.20;;;30.40;69.10;;;;;;4964302;28;20054;-74
2021/09/07 11:59:09;;;;;;;4.55;3.30;;;30.80;68.80;;;;;;4964681;28;20421;-75
2021/09/07 12:01:40;;;;;;;4.90;3.53;;;31.10;68.50;;;;;;4953544;28;20115;-75
2021/09/07 12:04:17;;;;;;;12.75;4.25;;;30.80;69.10;;;;;;4963163;28;20047;-75
2021/09/07 12:06:47;;;;;;;3.58;3.20;;;31.10;68.80;;;;;;4962974;28;20050;-75
2021/09/07 12:09:19;;;;;;;3.80;3.22;;;31.20;67.20;;;;;;4970284;28;20143;-75
2021/09/07 12:11:53;;;;;;;4.00;3.47;;;30.90;67.60;;;;;;4960515;28;20126;-75
2021/09/07 12:14:23;;;;;;;4.82;3.30;;;30.50;68.60;;;;;;4961769;28;20824;-75
2021/09/07 12:16:55;;;;;;;4.82;3.50;;;30.40;68.50;;;;;;4965206;28;20303;-75
2021/09/07 12:19:32;;;;;;;3.67;3.38;;;30.20;68.50;;;;;;4952653;28;20509;-75
2021/09/07 12:22:12;;;;;;;6.15;3.80;;;30.10;69.30;;;;;;4964710;28;20572;-75
2021/09/07 12:24:42;;;;;;;3.95;3.00;;;30.00;69.20;;;;;;4954832;28;20063;-75
2021/09/07 12:27:38;;;;;;;5.13;3.63;;;30.00;69.40;;;;;;4948555;28;20051;-75
2021/09/07 12:30:10;;;;;;;;;;;30.10;69.50;;;;;;4963939;28;20049;-75
2021/09/07 12:32:51;;;;;;;5.80;3.30;;;30.10;69.50;;;;;;4971608;28;19933;-75
2021/09/07 12:35:31;;;;;;;6.55;3.30;;;30.00;69.10;;;;;;4968364;28;20042;-75
2021/09/07 12:38:01;;;;;;;3.10;2.80;;;30.00;69.40;;;;;;4971906;28;20045;-75
2021/09/07 12:40:30;;;;;;;3.70;3.05;;;30.20;69.60;;;;;;4965492;28;20039;-75
2021/09/07 12:43:18;;;;;;;3.97;3.10;;;30.20;69.10;;;;;;4955530;28;20046;-75
2021/09/07 12:45:49;;;;;;;3.97;2.75;;;30.40;68.80;;;;;;4958830;28;20051;-75
2021/09/07 12:48:18;;;;;;;3.05;2.70;;;30.70;68.60;;;;;;4961233;28;20054;-75
2021/09/07 12:50:47;;;;;;;3.53;3.22;;;31.00;68.20;;;;;;4962514;28;20420;-75
2021/09/07 12:53:21;;;;;;;4.78;3.30;;;30.90;67.80;;;;;;4956387;28;20050;-74
2021/09/07 12:56:00;;;;;;;3.80;3.13;;;30.80;68.40;;;;;;4960832;28;20031;-75
2021/09/07 12:58:32;;;;;;;3.25;2.95;;;30.60;68.80;;;;;;4971104;28;20042;-75
2021/09/07 13:01:03;;;;;;;5.43;3.30;;;30.70;69.00;;;;;;4998660;28;20046;-75
2021/09/07 13:03:32;;;;;;;3.80;3.40;;;30.80;68.40;;;;;;4947690;28;20520;-74
2021/09/07 13:06:01;;;;;;;4.38;2.83;;;30.90;68.50;;;;;;4962055;28;20413;-75
2021/09/07 13:08:30;;;;;;;3.95;3.28;;;30.90;68.00;;;;;;4952452;28;20047;-74